Pagrindinis puslapis
METAR-TAF:

METAR-TAF

Oro uostai :

Erebru, Švedija

platuma: 59-14N, ilguma: 015-03E, Aukštis: 57 m

Dabartinis oras

Ataskaita buvo paskelbta 15 minutes, ne 09:50 UTC
Vėjas 8 kt iš Pietų/Pietvakarių
Temperatūra 11°C
Drėgmė 76%
Slėgis 1004 hPa
Matomumas 10 km arba daugiau
Išsisklaidę debesys ne aukštis 1800 ft

METAR: ESOE 290950Z 21008KT 9999 SCT018 11/07 Q1004

Laikas: 11:05 (10:05 UTC)

Prognozė

Ataskaita buvo paskelbta 1 valandą ir 35 minutes, ne 08:30 UTC
Prognozė galioja nuo 29 metu 09 UTC su 29 metu 18 UTC
Vėjas 8 kt iš Pietų
Matomumas 10 km arba daugiau
Išsisklaidę debesys ne aukštis 2000 ft
Laikinai
nuo 29 metu 09 UTC su 29 metu 11 UTC
Išsisklaidę debesys ne aukštis 2000 ft, Liūtiniai kamuoliniai debesys.
lietus

TAF: ESOE 290830Z 2909/2918 19008KT 9999 SCT020 TEMPO 2909/2911 SHRA SCT020CB

Orai ataskaitas ir orų prognozės (METAR, TAF).

turimą stotys yra geltonos ir raudonos taškus žemėlapyje.

Perkelti pele per norėdami pamatyti stoties vardą.

Tada spustelėkite, norėdami matyti oro stebėjimo ir prognozės.

Norėdami pakeisti žemėlapį: spustelėkite ant žalios mygtukų su juodo kryžiaus žemyn,; žalią mygtuką su brūkšneliu, jei norite nutolinti; arba žalių rodyklių gretimoms žemėlapius.


METAR-TAF: